createdAt,value
2018-11-01T11:36:22.140Z,100328.03
2018-11-01T11:38:51.982Z,100315.94
2018-11-01T11:41:21.829Z,100323.22
2018-11-01T11:43:52.409Z,100320.34
2018-11-01T11:46:22.250Z,100317.64
2018-11-01T11:48:55.136Z,100315.41
2018-11-01T11:51:25.007Z,100318.05
2018-11-01T11:53:54.867Z,100318.65
2018-11-01T11:56:23.573Z,100320.75
2018-11-01T11:58:51.816Z,100315.78
2018-11-01T12:05:32.507Z,100324.72
2018-11-01T12:08:07.415Z,100326.53
2018-11-01T12:10:38.187Z,100323.21
2018-11-01T12:13:08.488Z,100316.47
2018-11-01T12:15:38.542Z,100317.88
2018-11-01T12:18:09.729Z,100298.03
2018-11-01T12:20:40.224Z,100293.44
2018-11-01T12:23:10.389Z,100287.17
2018-11-01T12:25:40.293Z,100287.34
2018-11-01T12:28:10.798Z,100286.38
2018-11-01T12:30:41.269Z,100293.19
2018-11-01T12:33:11.797Z,100288.59
2018-11-01T12:35:41.901Z,100294.94
2018-11-01T12:38:11.768Z,100287.96
2018-11-01T12:40:42.069Z,100290.16
2018-11-01T12:43:12.913Z,100283.16
2018-11-01T12:45:43.392Z,100280.81
2018-11-01T12:48:13.557Z,100279.75
2018-11-01T12:50:43.486Z,100281.92
2018-11-01T12:53:14.060Z,100286.98
2018-11-01T12:55:44.281Z,100288.30
2018-11-01T12:58:14.483Z,100287.22
2018-11-01T13:00:44.472Z,100298.39
2018-11-01T13:03:14.919Z,100301.69
2018-11-01T13:05:44.972Z,100309.88
2018-11-01T13:08:15.505Z,100305.35
2018-11-01T13:10:45.648Z,100297.73
2018-11-01T13:13:16.138Z,100295.06
2018-11-01T13:15:46.832Z,100294.91
2018-11-01T13:18:17.317Z,100292.33
2018-11-01T13:20:47.793Z,100282.65
2018-11-01T13:23:17.984Z,100286.42
2018-11-01T13:25:48.531Z,100283.84
2018-11-01T13:28:18.700Z,100284.51
2018-11-01T13:30:48.625Z,100286.50
2018-11-01T13:33:18.601Z,100286.86
2018-11-01T13:35:48.792Z,100298.41
2018-11-01T13:38:19.016Z,100296.36
2018-11-01T13:40:49.934Z,100291.36
2018-11-01T13:43:19.776Z,100285.78
2018-11-01T13:45:49.881Z,100300.67
2018-11-01T13:48:20.360Z,100306.61
2018-11-01T13:50:50.135Z,100311.98
2018-11-01T13:53:20.281Z,100315.34
2018-11-01T13:55:50.789Z,100313.97
2018-11-01T13:58:21.357Z,100321.70
2018-11-01T14:00:51.705Z,100314.68
2018-11-01T14:03:22.144Z,100321.10
2018-11-01T14:05:52.868Z,100312.49
2018-11-01T14:08:23.298Z,100301.92
2018-11-01T14:10:54.073Z,100308.17
2018-11-01T14:13:24.960Z,100307.20
2018-11-01T14:15:55.073Z,100297.66
2018-11-01T14:18:24.953Z,100291.66
2018-11-01T14:20:55.937Z,100287.57
2018-11-01T14:23:26.737Z,100291.78
2018-11-01T14:25:57.311Z,100304.66
2018-11-01T14:28:27.836Z,100302.66
2018-11-01T14:30:57.988Z,100299.66
2018-11-01T14:33:28.889Z,100301.27
2018-11-01T14:35:58.978Z,100309.98
2018-11-01T14:38:29.203Z,100308.30
2018-11-01T14:40:59.331Z,100302.34
2018-11-01T14:43:29.593Z,100302.21
2018-11-01T14:58:10.558Z,100335.19
2018-11-01T15:00:40.192Z,100329.06
2018-11-01T15:03:10.364Z,100337.48
2018-11-01T15:05:40.270Z,100338.41
2018-11-01T15:08:10.351Z,100336.38
2018-11-01T15:10:40.474Z,100345.08
2018-11-01T15:13:10.579Z,100346.21
2018-11-01T15:15:40.855Z,100340.25
2018-11-01T15:18:11.154Z,100337.19
2018-11-01T15:20:41.514Z,100333.58
2018-11-01T15:23:11.630Z,100333.93
2018-11-01T15:25:41.800Z,100340.11
2018-11-01T15:28:12.527Z,100342.72
2018-11-01T15:30:42.756Z,100343.33
2018-11-01T15:33:13.758Z,100355.70
2018-11-01T15:35:44.336Z,100356.14
